createdAt,value
2018-10-09T00:00:42.075Z,99.99
2018-10-09T00:01:42.100Z,99.99
2018-10-09T00:02:42.141Z,99.99
2018-10-09T00:03:42.172Z,99.99
2018-10-09T00:04:42.222Z,99.99
2018-10-09T00:05:42.323Z,99.99
2018-10-09T00:06:42.319Z,99.99
2018-10-09T00:07:42.393Z,99.99
2018-10-09T00:08:42.416Z,99.99
2018-10-09T00:09:42.464Z,99.99
2018-10-09T00:10:42.512Z,99.99
2018-10-09T00:11:42.559Z,99.99
2018-10-09T00:12:42.659Z,99.99
2018-10-09T00:13:42.688Z,99.99
2018-10-09T00:14:42.707Z,99.99
2018-10-09T00:15:42.763Z,99.99
2018-10-09T00:16:42.806Z,99.99
2018-10-09T00:17:42.856Z,99.99
2018-10-09T00:18:42.928Z,99.99
2018-10-09T00:19:42.952Z,99.99
2018-10-09T00:20:43.005Z,99.99
2018-10-09T00:21:43.053Z,99.99
2018-10-09T00:22:43.104Z,99.99
2018-10-09T00:23:43.184Z,99.99
2018-10-09T00:24:43.198Z,99.99
2018-10-09T00:25:43.247Z,99.99
2018-10-09T00:26:43.297Z,99.99
2018-10-09T00:27:43.347Z,99.99
2018-10-09T00:28:43.420Z,99.99
2018-10-09T00:29:43.452Z,99.99
2018-10-09T00:30:44.328Z,99.99
2018-10-09T00:31:43.539Z,99.99
2018-10-09T00:32:43.594Z,99.99
2018-10-09T00:33:43.668Z,99.99
2018-10-09T00:34:43.692Z,99.99
2018-10-09T00:35:43.738Z,99.99
2018-10-09T00:36:43.787Z,99.99
2018-10-09T00:37:43.840Z,99.99
2018-10-09T00:38:43.910Z,99.99
2018-10-09T00:39:43.936Z,99.99
2018-10-09T00:40:43.991Z,99.99
2018-10-09T00:41:44.037Z,99.99
2018-10-09T00:42:44.103Z,99.99
2018-10-09T00:43:44.132Z,99.99
2018-10-09T00:44:44.183Z,99.99
2018-10-09T00:45:44.248Z,99.99
2018-10-09T00:46:44.283Z,99.99
2018-10-09T00:47:44.338Z,99.99
2018-10-09T00:48:44.378Z,99.99
2018-10-09T00:49:44.445Z,99.99
2018-10-09T00:50:44.491Z,99.99
2018-10-09T00:51:44.523Z,99.99
2018-10-09T00:52:44.572Z,99.99
2018-10-09T00:53:44.623Z,99.99
2018-10-09T00:54:44.774Z,99.99
2018-10-09T00:55:44.740Z,99.99
2018-10-09T00:56:44.768Z,99.99
2018-10-09T00:57:44.816Z,99.99
2018-10-09T00:58:44.868Z,99.99
2018-10-09T00:59:44.918Z,99.99
2018-10-09T01:00:44.980Z,99.99
2018-10-09T01:01:45.073Z,99.99
2018-10-09T01:02:45.064Z,99.99
2018-10-09T01:03:45.119Z,99.99
2018-10-09T01:04:45.167Z,99.99
2018-10-09T01:05:45.234Z,99.99
2018-10-09T01:06:45.263Z,99.99
2018-10-09T01:07:45.331Z,99.99
2018-10-09T01:08:45.455Z,99.99
2018-10-09T01:09:45.406Z,99.99
2018-10-09T01:10:45.455Z,99.99
2018-10-09T01:11:45.512Z,99.99
2018-10-09T01:12:45.578Z,99.99
2018-10-09T01:13:45.612Z,99.99
2018-10-09T01:14:45.655Z,99.99
2018-10-09T01:15:45.710Z,99.99
2018-10-09T01:16:45.759Z,99.99
2018-10-09T01:17:45.818Z,99.99
2018-10-09T01:18:45.849Z,99.99
2018-10-09T01:19:45.896Z,99.99
2018-10-09T01:20:45.950Z,99.99
2018-10-09T01:21:46.004Z,99.99
2018-10-09T01:22:46.144Z,99.99
2018-10-09T01:23:46.122Z,99.99
2018-10-09T01:24:46.149Z,99.99
2018-10-09T01:25:46.190Z,99.99
2018-10-09T01:26:46.248Z,99.99
2018-10-09T01:27:46.294Z,99.99
2018-10-09T01:28:46.364Z,99.99
2018-10-09T01:29:46.393Z,99.99
2018-10-09T01:30:46.459Z,99.99
2018-10-09T01:31:46.487Z,99.99
2018-10-09T01:32:46.546Z,99.99
2018-10-09T01:33:46.582Z,99.99
2018-10-09T01:34:46.658Z,99.99
2018-10-09T01:35:46.701Z,99.99
2018-10-09T01:36:46.738Z,99.99
2018-10-09T01:37:46.789Z,99.99
2018-10-09T01:38:46.847Z,99.99
2018-10-09T01:39:46.913Z,99.99
2018-10-09T01:40:46.936Z,99.99
2018-10-09T01:41:46.997Z,99.99
2018-10-09T01:42:47.026Z,99.99
2018-10-09T01:43:47.083Z,99.99
2018-10-09T01:44:47.123Z,99.99
2018-10-09T01:45:47.208Z,99.99
2018-10-09T01:46:47.225Z,99.99
2018-10-09T01:47:47.274Z,99.99
2018-10-09T01:48:47.322Z,99.99
2018-10-09T01:49:47.395Z,99.99
2018-10-09T01:50:47.485Z,99.99
2018-10-09T01:51:47.488Z,99.99
2018-10-09T01:52:47.519Z,99.99
2018-10-09T01:53:47.566Z,99.99
2018-10-09T01:54:47.618Z,99.99
2018-10-09T01:55:47.678Z,99.99
2018-10-09T01:56:47.750Z,99.99
2018-10-09T01:57:47.764Z,99.99
2018-10-09T01:58:47.818Z,99.99
2018-10-09T01:59:47.862Z,99.99
2018-10-09T02:00:47.911Z,99.99
2018-10-09T02:01:47.982Z,99.99
2018-10-09T02:02:48.011Z,99.99
2018-10-09T02:03:48.059Z,99.99
2018-10-09T02:04:48.108Z,99.99
2018-10-09T02:05:48.156Z,99.99
2018-10-09T02:06:48.233Z,99.99
2018-10-09T02:07:48.254Z,99.99
2018-10-09T02:08:48.300Z,99.99
2018-10-09T02:09:48.354Z,99.99
2018-10-09T02:10:48.399Z,99.99
2018-10-09T02:11:48.530Z,99.99
2018-10-09T02:12:48.529Z,99.99
2018-10-09T02:13:48.553Z,99.99
2018-10-09T02:14:48.601Z,99.99
2018-10-09T02:15:48.652Z,99.99
2018-10-09T02:16:48.696Z,99.99
2018-10-09T02:17:48.767Z,99.99
2018-10-09T02:18:48.900Z,99.99
2018-10-09T02:19:48.845Z,99.99
2018-10-09T02:20:48.896Z,99.99
2018-10-09T02:21:48.945Z,99.99
2018-10-09T02:22:48.988Z,99.99
2018-10-09T02:23:49.066Z,99.99
2018-10-09T02:24:49.092Z,99.99
2018-10-09T02:25:49.229Z,99.99
2018-10-09T02:26:49.186Z,99.99
2018-10-09T02:27:49.242Z,99.99
2018-10-09T02:28:49.311Z,99.99
2018-10-09T02:29:49.337Z,99.99
2018-10-09T02:30:49.383Z,99.99
2018-10-09T02:31:49.437Z,99.99
2018-10-09T02:32:49.559Z,99.99
2018-10-09T02:33:49.556Z,99.99
2018-10-09T02:34:49.581Z,99.99
2018-10-09T02:35:49.627Z,99.99
2018-10-09T02:36:49.680Z,99.99
2018-10-09T02:37:49.725Z,99.99
2018-10-09T02:38:49.798Z,99.99
2018-10-09T02:39:49.941Z,99.99
2018-10-09T02:40:49.872Z,99.99
2018-10-09T02:41:49.923Z,99.99
2018-10-09T02:42:49.978Z,99.99
2018-10-09T02:43:50.047Z,99.99
2018-10-09T02:44:50.079Z,99.99
2018-10-09T02:45:50.119Z,99.99
2018-10-09T02:46:50.165Z,99.99
2018-10-09T02:47:50.220Z,99.99
2018-10-09T02:48:50.282Z,99.99
2018-10-09T02:49:50.314Z,99.99
2018-10-09T02:50:50.371Z,99.99
2018-10-09T02:51:50.436Z,99.99
2018-10-09T02:52:50.467Z,99.99
2018-10-09T02:53:50.519Z,99.99
2018-10-09T02:54:50.562Z,99.99
2018-10-09T02:55:50.632Z,99.99
2018-10-09T02:56:50.665Z,99.99
2018-10-09T02:57:50.731Z,99.99
2018-10-09T02:58:50.758Z,99.99
2018-10-09T02:59:50.811Z,99.99
2018-10-09T03:00:50.876Z,99.99
2018-10-09T03:01:50.932Z,99.99
2018-10-09T03:02:50.955Z,99.99
2018-10-09T03:03:51.006Z,99.99
2018-10-09T03:04:51.053Z,99.99
2018-10-09T03:05:51.104Z,99.99
2018-10-09T03:06:51.172Z,99.99
2018-10-09T03:07:51.222Z,99.99
2018-10-09T03:08:51.263Z,99.99
2018-10-09T03:09:51.298Z,99.99
2018-10-09T03:10:51.365Z,99.99
2018-10-09T03:11:51.396Z,99.99
2018-10-09T03:12:51.470Z,99.99
2018-10-09T03:13:51.495Z,99.99
2018-10-09T03:14:51.553Z,99.99
2018-10-09T03:15:51.594Z,99.99
2018-10-09T03:16:51.660Z,99.99
2018-10-09T03:17:51.715Z,99.99
2018-10-09T03:18:51.759Z,99.99
2018-10-09T03:19:51.810Z,99.99
2018-10-09T03:20:51.839Z,99.99
2018-10-09T03:21:51.948Z,99.99
2018-10-09T03:22:51.947Z,99.99
2018-10-09T03:23:52.024Z,99.99
2018-10-09T03:24:52.037Z,99.99
2018-10-09T03:25:52.085Z,99.99
2018-10-09T03:26:52.132Z,99.99
2018-10-09T03:27:52.196Z,99.99
2018-10-09T03:28:52.342Z,99.99
2018-10-09T03:29:52.290Z,99.99
2018-10-09T03:30:52.364Z,99.99
2018-10-09T03:31:52.380Z,99.99
2018-10-09T03:32:52.442Z,99.99
2018-10-09T03:33:52.506Z,99.99
2018-10-09T03:34:52.531Z,99.99
2018-10-09T03:35:52.692Z,99.99
2018-10-09T03:36:52.621Z,99.99
2018-10-09T03:37:52.678Z,99.99
2018-10-09T03:38:52.724Z,99.99
2018-10-09T03:39:52.773Z,99.99
2018-10-09T03:40:52.840Z,99.99
2018-10-09T03:41:52.870Z,99.99
2018-10-09T03:42:52.920Z,99.99
2018-10-09T03:43:52.969Z,99.99
2018-10-09T03:44:53.023Z,99.99
2018-10-09T03:45:53.085Z,99.99
2018-10-09T03:46:53.139Z,99.99
2018-10-09T03:47:53.164Z,99.99
2018-10-09T03:48:53.214Z,99.99
2018-10-09T03:49:53.265Z,99.99
2018-10-09T03:50:53.339Z,99.99
2018-10-09T03:51:53.366Z,99.99
2018-10-09T03:52:53.430Z,99.99
2018-10-09T03:53:54.090Z,99.99
2018-10-09T03:54:53.507Z,99.99
2018-10-09T03:55:53.579Z,99.99
2018-10-09T03:56:53.750Z,99.99
2018-10-09T03:57:53.657Z,99.99
2018-10-09T03:58:53.705Z,99.99
2018-10-09T03:59:53.753Z,99.99
2018-10-09T04:00:53.822Z,99.99
2018-10-09T04:01:53.851Z,99.99
2018-10-09T04:02:53.898Z,99.99
2018-10-09T04:03:53.958Z,99.99
2018-10-09T04:04:53.998Z,99.99
2018-10-09T04:05:54.077Z,99.99
2018-10-09T04:06:54.096Z,99.99
2018-10-09T04:07:54.145Z,99.99
2018-10-09T04:08:54.207Z,99.99
2018-10-09T04:09:54.243Z,99.99
2018-10-09T04:10:54.317Z,99.99
2018-10-09T04:11:54.342Z,99.99
2018-10-09T04:12:54.398Z,99.99
2018-10-09T04:13:54.439Z,99.99
2018-10-09T04:14:54.498Z,99.99
2018-10-09T04:15:54.559Z,99.99
2018-10-09T04:16:54.607Z,99.99
2018-10-09T04:17:54.644Z,99.99
2018-10-09T04:18:54.695Z,99.99
2018-10-09T04:19:54.739Z,99.99
2018-10-09T04:20:54.806Z,99.99
2018-10-09T04:21:54.833Z,99.99
2018-10-09T04:22:54.881Z,99.99
2018-10-09T04:23:54.933Z,99.99
2018-10-09T04:24:54.991Z,99.99
2018-10-09T04:25:55.067Z,99.99
2018-10-09T04:26:55.085Z,99.99
2018-10-09T04:27:55.150Z,99.99
2018-10-09T04:28:55.177Z,99.99
2018-10-09T04:29:55.226Z,99.99
2018-10-09T04:30:55.295Z,99.99
2018-10-09T04:31:55.344Z,99.99
2018-10-09T04:32:55.392Z,99.99
2018-10-09T04:33:55.423Z,99.99
2018-10-09T04:34:55.474Z,99.99
2018-10-09T04:35:55.524Z,99.99
2018-10-09T04:36:55.580Z,99.99
2018-10-09T04:37:55.663Z,99.99
2018-10-09T04:38:55.673Z,99.99
2018-10-09T04:39:55.725Z,99.99
2018-10-09T04:40:55.799Z,99.99
2018-10-09T04:41:55.817Z,99.99
2018-10-09T04:42:55.887Z,99.99
2018-10-09T04:43:55.922Z,99.99
2018-10-09T04:44:55.965Z,99.99
2018-10-09T04:45:56.022Z,99.99
2018-10-09T04:46:56.062Z,99.99
2018-10-09T04:47:56.143Z,99.99
2018-10-09T04:48:56.186Z,99.99
2018-10-09T04:49:56.208Z,99.99
2018-10-09T04:50:56.259Z,99.99
2018-10-09T04:51:56.311Z,99.99
2018-10-09T04:52:56.393Z,99.99
2018-10-09T04:53:56.407Z,99.99
2018-10-09T04:54:56.476Z,99.99
2018-10-09T04:55:56.508Z,99.99
2018-10-09T04:56:56.564Z,99.99
2018-10-09T04:57:56.634Z,99.99
2018-10-09T04:58:56.677Z,99.99
2018-10-09T04:59:56.701Z,99.99
2018-10-09T05:00:56.757Z,99.99
2018-10-09T05:01:56.800Z,99.99
2018-10-09T05:02:56.849Z,99.99
2018-10-09T05:03:56.926Z,99.99
2018-10-09T05:04:56.948Z,99.99
2018-10-09T05:05:57.003Z,99.99
2018-10-09T05:06:57.051Z,99.99
2018-10-09T05:07:57.101Z,99.99
2018-10-09T05:08:57.168Z,99.99
2018-10-09T05:09:57.219Z,99.99
2018-10-09T05:10:57.260Z,99.99
2018-10-09T05:11:57.293Z,99.99
2018-10-09T05:12:57.346Z,99.99
2018-10-09T05:13:57.391Z,99.99
2018-10-09T05:14:57.457Z,99.99
2018-10-09T05:15:57.528Z,99.99
2018-10-09T05:16:57.539Z,99.99
2018-10-09T05:17:57.614Z,99.99
2018-10-09T05:18:57.637Z,99.99
2018-10-09T05:19:57.691Z,99.99
2018-10-09T05:20:57.738Z,99.99
2018-10-09T05:21:57.809Z,99.99
2018-10-09T05:22:57.843Z,99.99
2018-10-09T05:23:57.899Z,99.99
2018-10-09T05:24:57.934Z,99.99
2018-10-09T05:25:57.983Z,99.99
2018-10-09T05:26:58.048Z,99.99
2018-10-09T05:27:58.092Z,99.99
2018-10-09T05:28:58.135Z,99.99
2018-10-09T05:29:58.185Z,99.99
2018-10-09T05:30:58.292Z,99.99
2018-10-09T05:31:58.303Z,99.99
2018-10-09T05:32:58.327Z,99.99
2018-10-09T05:33:58.376Z,99.99
2018-10-09T05:34:58.431Z,99.99
2018-10-09T05:35:58.475Z,99.99
2018-10-09T05:36:58.605Z,99.99
2018-10-09T05:37:58.578Z,99.99
2018-10-09T05:38:58.621Z,99.99
2018-10-09T05:39:58.672Z,99.99
2018-10-09T05:40:58.722Z,99.99
2018-10-09T05:41:58.795Z,99.99
2018-10-09T05:42:58.817Z,99.99
2018-10-09T05:43:58.968Z,99.99
2018-10-09T05:44:58.922Z,99.99
2018-10-09T05:45:58.965Z,99.99
2018-10-09T05:46:59.021Z,99.99
2018-10-09T05:47:59.093Z,99.99
2018-10-09T05:48:59.157Z,99.99
2018-10-09T05:49:59.181Z,99.99
2018-10-09T05:50:59.235Z,99.99
2018-10-09T05:51:59.257Z,99.99
2018-10-09T05:52:59.311Z,99.99
2018-10-09T05:53:59.356Z,99.99
2018-10-09T05:54:59.408Z,99.99
2018-10-09T05:55:59.480Z,99.99
2018-10-09T05:56:59.509Z,99.99
2018-10-09T05:57:59.611Z,99.99
2018-10-09T05:58:59.612Z,99.99
2018-10-09T05:59:59.680Z,99.99
2018-10-09T06:00:59.701Z,99.99
2018-10-09T06:01:59.754Z,99.99
2018-10-09T06:02:59.798Z,99.99
2018-10-09T06:03:59.850Z,99.99
2018-10-09T06:04:59.926Z,99.99
2018-10-09T06:06:00.027Z,99.99
2018-10-09T06:07:00.012Z,99.99
2018-10-09T06:08:00.058Z,99.99
2018-10-09T06:09:00.097Z,99.99
2018-10-09T06:10:00.143Z,99.99
2018-10-09T06:11:00.198Z,99.99
2018-10-09T06:12:00.268Z,99.99
2018-10-09T06:13:00.298Z,99.99
2018-10-09T06:14:00.337Z,99.99
2018-10-09T06:15:00.419Z,99.99
2018-10-09T06:16:00.525Z,99.99
2018-10-09T06:17:00.484Z,99.99
2018-10-09T06:18:00.560Z,99.99
2018-10-09T06:19:00.610Z,99.99
2018-10-09T06:20:00.633Z,99.99
2018-10-09T06:21:00.683Z,99.99
2018-10-09T06:22:00.787Z,99.99
2018-10-09T06:23:00.792Z,99.99
2018-10-09T06:24:00.856Z,99.99
2018-10-09T06:25:00.878Z,99.99
2018-10-09T06:26:00.949Z,99.99
2018-10-09T06:27:00.974Z,99.99
2018-10-09T06:28:01.105Z,99.99
2018-10-09T06:29:01.075Z,99.99
2018-10-09T06:30:01.167Z,99.99
2018-10-09T06:31:01.191Z,99.99
2018-10-09T06:32:01.231Z,99.99
2018-10-09T06:33:01.269Z,99.99
2018-10-09T06:34:01.371Z,99.99
2018-10-09T06:35:01.383Z,99.99
2018-10-09T06:36:01.427Z,99.99
2018-10-09T06:37:01.483Z,99.99
2018-10-09T06:38:01.532Z,99.99
2018-10-09T06:39:01.584Z,99.99
2018-10-09T06:40:01.616Z,99.99
2018-10-09T06:41:01.666Z,99.99
2018-10-09T06:42:01.712Z,99.99
2018-10-09T06:43:01.783Z,99.99
2018-10-09T06:44:01.832Z,99.99
2018-10-09T06:45:01.864Z,99.99
2018-10-09T06:46:01.981Z,99.99
2018-10-09T06:47:02.000Z,99.99
2018-10-09T06:48:02.012Z,99.99
2018-10-09T06:49:02.056Z,99.99
2018-10-09T06:50:02.128Z,99.99
2018-10-09T06:51:02.166Z,99.99
2018-10-09T06:52:02.216Z,99.99
2018-10-09T06:53:02.263Z,99.99
2018-10-09T06:54:02.484Z,99.99
2018-10-09T06:55:02.375Z,99.99
2018-10-09T06:56:02.405Z,99.99
2018-10-09T06:57:02.484Z,99.99
2018-10-09T06:58:02.501Z,99.99
2018-10-09T06:59:02.554Z,99.99
2018-10-09T07:00:02.644Z,99.99
2018-10-09T07:01:02.648Z,99.99
2018-10-09T07:02:02.725Z,99.99
2018-10-09T07:03:02.751Z,99.99
2018-10-09T07:04:02.820Z,99.99
2018-10-09T07:05:02.895Z,99.99
2018-10-09T07:06:02.900Z,99.99
2018-10-09T07:07:02.966Z,99.99
2018-10-09T07:08:03.071Z,99.99
2018-10-09T07:09:03.058Z,99.99
2018-10-09T07:10:03.099Z,99.99
2018-10-09T07:11:03.166Z,99.99
2018-10-09T07:12:03.221Z,99.99
2018-10-09T07:13:03.273Z,99.99
2018-10-09T07:14:03.301Z,99.99
2018-10-09T07:15:03.420Z,99.99
2018-10-09T07:16:03.396Z,99.99
2018-10-09T07:17:03.533Z,99.99
2018-10-09T07:18:03.496Z,99.99
2018-10-09T07:19:03.545Z,99.99
2018-10-09T07:20:03.616Z,99.99
2018-10-09T07:21:03.644Z,99.99
2018-10-09T07:22:03.713Z,99.99
2018-10-09T07:23:03.742Z,99.99
2018-10-09T07:24:03.799Z,99.99
2018-10-09T07:25:03.847Z,99.99
2018-10-09T07:26:03.897Z,99.99
2018-10-09T07:27:03.977Z,99.99
2018-10-09T07:28:04.028Z,99.99
2018-10-09T07:29:04.043Z,99.99
2018-10-09T07:30:04.093Z,99.99
2018-10-09T07:31:04.148Z,99.99
2018-10-09T07:32:04.193Z,99.99
2018-10-09T07:33:04.264Z,99.99
2018-10-09T07:34:04.304Z,99.99
2018-10-09T07:35:04.347Z,99.99
2018-10-09T07:36:04.404Z,99.99
2018-10-09T07:37:04.457Z,99.99
2018-10-09T07:38:04.522Z,99.99
2018-10-09T07:39:04.559Z,99.99
2018-10-09T07:40:04.602Z,99.99
2018-10-09T07:41:04.650Z,99.99
2018-10-09T07:42:04.703Z,99.99
2018-10-09T07:43:04.771Z,99.99
2018-10-09T07:44:04.956Z,99.99
2018-10-09T07:45:04.856Z,99.99
2018-10-09T07:46:04.905Z,99.99
2018-10-09T07:47:04.960Z,99.99
2018-10-09T07:48:05.022Z,99.99
2018-10-09T07:49:05.071Z,99.99
2018-10-09T07:50:05.104Z,99.99
2018-10-09T07:51:05.152Z,99.99
2018-10-09T07:52:05.214Z,99.99
2018-10-09T07:53:05.256Z,99.99
2018-10-09T07:54:05.331Z,99.99
2018-10-09T07:55:05.355Z,99.99
2018-10-09T07:56:05.427Z,99.99
2018-10-09T07:57:05.463Z,99.99
2018-10-09T07:58:05.509Z,99.99
2018-10-09T07:59:05.568Z,99.99
2018-10-09T08:00:05.641Z,99.99
2018-10-09T08:01:05.662Z,99.99
2018-10-09T08:02:05.707Z,99.99
2018-10-09T08:03:05.762Z,99.99
2018-10-09T08:04:05.816Z,99.99
2018-10-09T08:05:05.887Z,99.99
2018-10-09T08:06:05.911Z,99.99
2018-10-09T08:07:05.964Z,98.05
2018-10-09T08:08:06.012Z,96.03
2018-10-09T08:09:06.073Z,94.44
2018-10-09T08:10:06.133Z,92.99
2018-10-09T08:11:06.185Z,91.97
2018-10-09T08:12:06.241Z,90.72
2018-10-09T08:13:06.274Z,92.50
2018-10-09T08:14:06.324Z,91.54
2018-10-09T08:15:06.372Z,92.41
2018-10-09T08:16:06.512Z,95.26
2018-10-09T08:17:06.498Z,96.22
2018-10-09T08:18:06.542Z,96.37
2018-10-09T08:19:06.585Z,96.99
2018-10-09T08:20:06.635Z,96.32
2018-10-09T08:21:06.691Z,97.52
2018-10-09T08:22:06.756Z,99.21
2018-10-09T08:23:06.810Z,99.99
2018-10-09T08:24:06.879Z,99.99
2018-10-09T08:25:06.906Z,99.99
2018-10-09T08:26:06.945Z,99.99
2018-10-09T08:27:07.001Z,99.99
2018-10-09T08:28:07.090Z,99.99
2018-10-09T08:29:07.119Z,99.99
2018-10-09T08:30:07.151Z,99.99
2018-10-09T08:31:07.197Z,99.99
2018-10-09T08:32:07.294Z,99.99
2018-10-09T08:33:07.326Z,99.99
2018-10-09T08:34:07.367Z,99.11
2018-10-09T08:35:07.412Z,97.81
2018-10-09T08:36:07.460Z,96.89
2018-10-09T08:37:07.523Z,94.39
2018-10-09T08:38:07.596Z,94.15
2018-10-09T08:39:07.609Z,93.52
2018-10-09T08:40:07.685Z,94.29
2018-10-09T08:41:07.741Z,94.20
2018-10-09T08:42:07.773Z,93.38
2018-10-09T08:43:07.841Z,92.61
2018-10-09T08:44:07.946Z,92.22
2018-10-09T08:45:07.927Z,92.85
2018-10-09T08:46:08.030Z,92.85
2018-10-09T08:47:08.036Z,93.14
2018-10-09T08:48:08.112Z,92.90
2018-10-09T08:49:08.138Z,94.87
2018-10-09T08:50:08.209Z,95.36
2018-10-09T08:51:08.934Z,96.47
2018-10-09T08:52:08.355Z,96.22
2018-10-09T08:53:08.340Z,95.89
2018-10-09T08:54:08.399Z,94.39
2018-10-09T08:55:08.469Z,93.14
2018-10-09T08:56:08.536Z,92.36
2018-10-09T08:57:08.556Z,91.20
2018-10-09T08:58:08.686Z,88.45
2018-10-09T08:59:08.662Z,90.06
2018-10-09T09:00:08.733Z,92.13
2018-10-09T09:01:08.767Z,94.44
2018-10-09T09:02:08.814Z,92.56
2018-10-09T09:03:09.030Z,93.04
2018-10-09T09:04:08.927Z,93.04
2018-10-09T09:05:08.976Z,92.18
2018-10-09T09:06:09.050Z,92.66
2018-10-09T09:07:09.081Z,92.94
2018-10-09T09:08:09.133Z,92.85
2018-10-09T09:09:09.191Z,92.94
2018-10-09T09:10:09.396Z,92.80
2018-10-09T09:11:09.299Z,94.30
2018-10-09T09:12:09.373Z,94.40
2018-10-09T09:13:09.401Z,95.12
2018-10-09T09:14:09.481Z,95.07
2018-10-09T09:15:09.516Z,92.94
2018-10-09T09:16:09.557Z,92.99
2018-10-09T09:17:09.768Z,92.71
2018-10-09T09:18:09.681Z,92.41
2018-10-09T09:19:09.721Z,92.13
2018-10-09T09:20:09.789Z,90.48
2018-10-09T09:21:09.826Z,89.91
2018-10-09T09:22:09.894Z,90.30
2018-10-09T09:23:09.937Z,90.82
2018-10-09T09:24:10.107Z,89.09
2018-10-09T09:25:10.063Z,89.57
2018-10-09T09:26:10.143Z,89.53
2018-10-09T09:27:10.278Z,89.53
2018-10-09T09:28:10.197Z,90.63
2018-10-09T09:29:10.251Z,89.09
2018-10-09T09:30:10.329Z,91.99
2018-10-09T09:31:10.398Z,92.95
2018-10-09T09:32:10.417Z,94.92
2018-10-09T09:33:10.487Z,95.40
2018-10-09T09:34:10.520Z,97.28
2018-10-09T09:35:10.604Z,96.61
2018-10-09T09:36:10.660Z,96.89
2018-10-09T09:37:10.689Z,94.87
2018-10-09T09:38:10.738Z,94.59
2018-10-09T09:39:10.877Z,94.68
2018-10-09T09:40:10.842Z,95.26
2018-10-09T09:41:10.922Z,92.08
2018-10-09T09:42:10.950Z,94.20
2018-10-09T09:43:11.013Z,94.40
2018-10-09T09:44:11.058Z,94.20
2018-10-09T09:45:11.114Z,94.25
2018-10-09T09:46:11.216Z,93.52
2018-10-09T09:47:11.217Z,92.71
2018-10-09T09:48:11.272Z,89.43
2018-10-09T09:49:11.330Z,90.06
2018-10-09T09:50:11.382Z,91.55
2018-10-09T09:51:11.463Z,91.89
2018-10-09T09:52:11.559Z,91.02
2018-10-09T09:53:11.544Z,91.50
2018-10-09T09:54:11.592Z,90.64
2018-10-09T09:55:11.656Z,91.06
2018-10-09T09:56:11.740Z,91.12
2018-10-09T09:57:11.771Z,90.73
2018-10-09T09:58:11.950Z,91.31
2018-10-09T09:59:12.075Z,90.25
2018-10-09T10:00:11.919Z,90.73
2018-10-09T10:01:11.994Z,91.50
2018-10-09T10:02:12.025Z,91.02
2018-10-09T10:03:12.080Z,92.37
2018-10-09T10:04:12.153Z,91.26
2018-10-09T10:05:12.195Z,90.97
2018-10-09T10:06:12.250Z,92.52
2018-10-09T10:07:12.296Z,92.57
2018-10-09T10:08:12.374Z,93.96
2018-10-09T10:09:12.429Z,96.03
2018-10-09T10:10:12.485Z,97.09
2018-10-09T10:11:12.518Z,96.80
2018-10-09T10:12:12.587Z,96.94
2018-10-09T10:13:12.641Z,96.32
2018-10-09T10:14:12.703Z,94.68
2018-10-09T10:15:12.725Z,94.30
2018-10-09T10:16:12.783Z,94.78
2018-10-09T10:17:12.835Z,91.41
2018-10-09T10:18:12.888Z,92.37
2018-10-09T10:19:12.962Z,91.99
2018-10-09T10:20:13.029Z,91.50
2018-10-09T10:21:13.090Z,91.79
2018-10-09T10:22:13.102Z,90.48
2018-10-09T10:23:13.303Z,90.68
2018-10-09T10:24:13.210Z,91.65
2018-10-09T10:25:13.288Z,93.19
2018-10-09T10:26:13.324Z,95.12
2018-10-09T10:27:13.372Z,97.24
2018-10-09T10:28:13.424Z,93.04
2018-10-09T10:29:13.552Z,90.63
2018-10-09T10:30:13.555Z,88.22
2018-10-09T10:31:13.585Z,90.01
2018-10-09T10:32:13.643Z,92.18
2018-10-09T10:33:13.693Z,92.28
2018-10-09T10:34:13.744Z,93.53
2018-10-09T10:35:13.822Z,93.19
2018-10-09T10:36:13.868Z,93.00
2018-10-09T10:37:13.918Z,92.52
2018-10-09T10:38:13.969Z,93.24
2018-10-09T10:39:14.020Z,93.09
2018-10-09T10:40:14.096Z,90.58
2018-10-09T10:41:14.132Z,89.42
2018-10-09T10:42:14.237Z,87.88
2018-10-09T10:43:14.235Z,88.60
2018-10-09T10:44:14.292Z,90.77
2018-10-09T10:45:14.362Z,87.63
2018-10-09T10:46:14.391Z,88.45
2018-10-09T10:47:14.444Z,87.73
2018-10-09T10:48:14.500Z,86.76
2018-10-09T10:49:14.564Z,86.43
2018-10-09T10:50:14.639Z,88.55
2018-10-09T10:51:14.668Z,89.23
2018-10-09T10:52:14.721Z,90.53
2018-10-09T10:53:14.766Z,87.73
2018-10-09T10:54:14.823Z,85.85
2018-10-09T10:55:14.906Z,88.02
2018-10-09T10:56:14.932Z,88.69
2018-10-09T10:57:15.011Z,88.45
2018-10-09T10:58:15.059Z,87.77
2018-10-09T10:59:15.097Z,86.61
2018-10-09T11:00:15.152Z,87.62
2018-10-09T11:01:15.246Z,86.75
2018-10-09T11:02:15.263Z,88.39
2018-10-09T11:03:15.357Z,86.65
2018-10-09T11:04:15.371Z,85.40
2018-10-09T11:05:15.443Z,84.48
2018-10-09T11:06:15.480Z,86.03
2018-10-09T11:07:15.535Z,86.03
2018-10-09T11:08:15.658Z,86.75
2018-10-09T11:09:15.652Z,86.65
2018-10-09T11:10:15.701Z,83.85
2018-10-09T11:11:15.757Z,82.69
2018-10-09T11:12:15.837Z,83.37
2018-10-09T11:13:15.863Z,83.31
2018-10-09T11:14:15.918Z,85.83
2018-10-09T11:15:15.991Z,83.31
2018-10-09T11:16:16.059Z,84.42
2018-10-09T11:17:16.111Z,86.16
2018-10-09T11:18:16.139Z,83.55
2018-10-09T11:19:16.194Z,83.16
2018-10-09T11:20:16.251Z,83.16
2018-10-09T11:21:16.395Z,83.98
2018-10-09T11:22:16.378Z,82.43
2018-10-09T11:23:16.420Z,83.45
2018-10-09T11:24:16.481Z,83.45
2018-10-09T11:25:16.536Z,84.61
2018-10-09T11:26:16.589Z,84.52
2018-10-09T11:27:16.666Z,83.55
2018-10-09T11:28:16.703Z,83.36
2018-10-09T11:29:16.762Z,84.32
2018-10-09T11:30:16.823Z,87.32
2018-10-09T11:31:16.883Z,84.71
2018-10-09T11:32:16.934Z,82.87
2018-10-09T11:33:16.976Z,83.45
2018-10-09T11:34:17.063Z,85.52
2018-10-09T11:35:17.091Z,83.98
2018-10-09T11:36:17.148Z,85.24
2018-10-09T11:37:17.202Z,85.00
2018-10-09T11:38:17.263Z,84.67
2018-10-09T11:39:17.349Z,86.79
2018-10-09T11:40:17.369Z,85.53
2018-10-09T11:41:17.436Z,85.88
2018-10-09T11:42:17.480Z,87.43
2018-10-09T11:43:18.519Z,88.15
2018-10-09T11:44:17.624Z,87.85
2018-10-09T11:45:17.650Z,84.53
2018-10-09T11:46:17.708Z,85.21
2018-10-09T11:47:17.787Z,87.91
2018-10-09T11:48:17.857Z,87.81
2018-10-09T11:49:17.885Z,86.90
2018-10-09T11:50:17.966Z,89.22
2018-10-09T11:51:17.991Z,88.02
2018-10-09T11:52:18.044Z,87.63
2018-10-09T11:53:18.099Z,88.89
2018-10-09T11:54:18.184Z,87.53
2018-10-09T11:55:18.235Z,90.43
2018-10-09T11:56:18.267Z,88.50
2018-10-09T11:57:18.332Z,90.48
2018-10-09T11:58:18.393Z,88.69
2018-10-09T11:59:18.439Z,88.98
2018-10-09T12:00:18.548Z,89.37
2018-10-09T12:01:18.543Z,89.61
2018-10-09T12:02:18.614Z,89.13
2018-10-09T12:03:18.652Z,91.11
2018-10-09T12:04:18.708Z,90.72
2018-10-09T12:05:18.761Z,90.48
2018-10-09T12:06:18.811Z,90.48
2018-10-09T12:07:18.960Z,89.71
2018-10-09T12:08:18.936Z,87.97
2018-10-09T12:09:18.974Z,87.59
2018-10-09T12:10:19.030Z,86.87
2018-10-09T12:11:19.123Z,88.45
2018-10-09T12:12:19.158Z,88.12
2018-10-09T12:13:19.233Z,89.37
2018-10-09T12:14:19.265Z,87.45
2018-10-09T12:15:19.303Z,86.87
2018-10-09T12:16:19.382Z,87.93
2018-10-09T12:17:19.410Z,88.70
2018-10-09T12:18:19.465Z,89.14
2018-10-09T12:19:19.520Z,89.04
2018-10-09T12:20:19.575Z,90.97
2018-10-09T12:21:19.669Z,91.45
2018-10-09T12:22:19.683Z,91.83
2018-10-09T12:23:19.741Z,92.37
2018-10-09T12:24:19.796Z,92.99
2018-10-09T12:25:19.840Z,92.56
2018-10-09T12:26:19.917Z,92.85
2018-10-09T12:27:19.949Z,91.36
2018-10-09T12:28:20.013Z,91.16
2018-10-09T12:29:20.089Z,90.88
2018-10-09T12:30:20.112Z,91.45
2018-10-09T12:31:20.186Z,91.69
2018-10-09T12:32:20.245Z,91.45
2018-10-09T12:33:20.421Z,90.39
2018-10-09T12:34:20.333Z,90.58
2018-10-09T12:35:20.389Z,89.72
2018-10-09T12:36:20.431Z,90.15
2018-10-09T12:37:20.503Z,90.53
2018-10-09T12:38:20.616Z,88.99
2018-10-09T12:39:20.615Z,88.99
2018-10-09T12:40:20.719Z,89.47
2018-10-09T12:41:20.734Z,90.38
2018-10-09T12:42:20.761Z,88.41
2018-10-09T12:43:20.810Z,88.65
2018-10-09T12:44:20.905Z,86.57
2018-10-09T12:45:20.950Z,86.28
2018-10-09T12:46:20.973Z,86.47
2018-10-09T12:47:21.030Z,87.05
2018-10-09T12:48:21.092Z,87.20
2018-10-09T12:49:21.140Z,87.68
2018-10-09T12:50:21.219Z,86.72
2018-10-09T12:51:21.297Z,86.91
2018-10-09T12:52:21.307Z,88.84
2018-10-09T12:53:21.390Z,89.28